Time,TemperatureF,DewpointF,PressureIn,WindDirection,WindDirectionDegrees,WindSpeedMPH,WindSpeedGustMPH,Humidity,HourlyPrecipIn,Conditions,Clouds,dailyrainin,SoftwareType,DateUTC
2013-08-10 00:00:00,79.9,76.0,29.96,West,270,1.6,-999.0,88,-99.99,,,0.00,Acu-Link.com,2013-08-10 04:00:00,
2013-08-10 00:15:00,79.5,76.0,29.96,West,270,2.2,-999.0,89,-99.99,,,0.00,Acu-Link.com,2013-08-10 04:15:00,
2013-08-10 00:30:00,79.7,76.2,29.96,South,180,2.2,-999.0,89,-99.99,,,0.00,Acu-Link.com,2013-08-10 04:30:00,
2013-08-10 00:45:00,80.8,76.9,29.96,East,90,1.6,-999.0,88,-99.99,,,0.00,Acu-Link.com,2013-08-10 04:45:00,
2013-08-10 01:01:00,79.7,76.5,29.96,WSW,247,2.7,-999.0,90,-99.99,,,0.00,Acu-Link.com,2013-08-10 05:01:00,
2013-08-10 01:16:00,79.7,76.2,29.95,WSW,247,1.6,-999.0,89,-99.99,,,0.00,Acu-Link.com,2013-08-10 05:16:00,
2013-08-10 01:31:00,79.3,76.1,29.95,West,270,2.2,-999.0,90,-99.99,,,0.00,Acu-Link.com,2013-08-10 05:31:00,
2013-08-10 01:46:00,80.4,76.9,29.95,East,90,0.0,-999.0,89,-99.99,,,0.00,Acu-Link.com,2013-08-10 05:46:00,
2013-08-10 02:01:00,79.5,76.7,29.95,SSW,202,0.0,-999.0,91,-99.99,,,0.00,Acu-Link.com,2013-08-10 06:01:00,
2013-08-10 02:17:00,79.2,76.3,29.95,SSW,202,1.6,-999.0,91,-99.99,,,0.00,Acu-Link.com,2013-08-10 06:17:00,
2013-08-10 02:32:00,79.2,76.6,29.94,ESE,112,0.0,-999.0,92,-99.99,,,0.00,Acu-Link.com,2013-08-10 06:32:00,
2013-08-10 02:47:00,77.7,75.8,29.94,ESE,112,7.8,-999.0,94,-99.99,,,0.01,Acu-Link.com,2013-08-10 06:47:00,
2013-08-10 03:02:00,77.5,75.0,29.94,ESE,112,2.7,-999.0,92,-99.99,,,0.23,Acu-Link.com,2013-08-10 07:02:00,
2013-08-10 03:17:00,77.9,76.0,29.93,South,180,1.6,-999.0,94,-99.99,,,0.23,Acu-Link.com,2013-08-10 07:17:00,
2013-08-10 03:33:00,78.1,76.2,29.93,ESE,112,2.7,-999.0,94,-99.99,,,0.23,Acu-Link.com,2013-08-10 07:33:00,
2013-08-10 03:48:00,78.1,76.2,29.94,South,180,2.2,-999.0,94,-99.99,,,0.23,Acu-Link.com,2013-08-10 07:48:00,
2013-08-10 04:03:00,78.4,76.6,29.94,South,180,2.2,-999.0,94,-99.99,,,0.23,Acu-Link.com,2013-08-10 08:03:00,
2013-08-10 04:19:00,78.4,76.6,29.94,South,180,1.6,-999.0,94,-99.99,,,0.23,Acu-Link.com,2013-08-10 08:19:00,
2013-08-10 04:34:00,78.3,76.4,29.94,South,180,0.0,-999.0,94,-99.99,,,0.23,Acu-Link.com,2013-08-10 08:34:00,
2013-08-10 04:49:00,78.3,76.7,29.94,East,90,0.0,-999.0,95,-99.99,,,0.23,Acu-Link.com,2013-08-10 08:49:00,
2013-08-10 05:05:00,78.3,76.4,29.94,SSE,157,3.1,-999.0,94,-99.99,,,0.23,Acu-Link.com,2013-08-10 09:05:00,
2013-08-10 05:20:00,78.1,76.2,29.94,SSW,202,2.2,-999.0,94,-99.99,,,0.23,Acu-Link.com,2013-08-10 09:20:00,
2013-08-10 05:35:00,78.1,76.2,29.94,SW,225,2.7,-999.0,94,-99.99,,,0.23,Acu-Link.com,2013-08-10 09:35:00,
2013-08-10 05:50:00,78.1,76.2,29.94,South,180,1.1,-999.0,94,-99.99,,,0.23,Acu-Link.com,2013-08-10 09:50:00,
2013-08-10 06:05:00,77.7,76.2,29.94,SSW,202,1.6,-999.0,95,-99.99,,,0.23,Acu-Link.com,2013-08-10 10:05:00,
2013-08-10 06:20:00,77.9,76.3,29.95,South,180,2.2,-999.0,95,-99.99,,,0.23,Acu-Link.com,2013-08-10 10:20:00,
2013-08-10 06:35:00,78.3,76.4,29.95,SSE,157,1.6,-999.0,94,-99.99,,,0.23,Acu-Link.com,2013-08-10 10:35:00,
2013-08-10 06:51:00,79.0,76.8,29.96,SSW,202,3.1,-999.0,93,-99.99,,,0.23,Acu-Link.com,2013-08-10 10:51:00,
2013-08-10 07:06:00,79.9,77.3,29.96,East,90,1.1,-999.0,92,-99.99,,,0.23,Acu-Link.com,2013-08-10 11:06:00,
2013-08-10 07:21:00,80.4,76.9,29.96,SSW,202,2.7,-999.0,89,-99.99,,,0.23,Acu-Link.com,2013-08-10 11:21:00,
2013-08-10 07:36:00,80.2,76.7,29.96,SSE,157,2.7,-999.0,89,-99.99,,,0.23,Acu-Link.com,2013-08-10 11:36:00,
2013-08-10 07:52:00,81.0,77.7,29.96,South,180,3.1,-999.0,90,-99.99,,,0.23,Acu-Link.com,2013-08-10 11:52:00,
2013-08-10 08:07:00,82.0,78.5,29.96,SW,225,2.7,-999.0,89,-99.99,,,0.23,Acu-Link.com,2013-08-10 12:07:00,
2013-08-10 08:22:00,83.3,77.9,29.97,SW,225,2.7,-999.0,84,-99.99,,,0.23,Acu-Link.com,2013-08-10 12:22:00,
2013-08-10 08:37:00,84.4,78.3,29.97,East,90,6.3,-999.0,82,-99.99,,,0.23,Acu-Link.com,2013-08-10 12:37:00,
2013-08-10 08:52:00,85.5,78.2,29.96,East,90,7.8,-999.0,79,-99.99,,,0.23,Acu-Link.com,2013-08-10 12:52:00,
2013-08-10 09:08:00,85.6,78.4,29.97,NE,45,6.7,-999.0,79,-99.99,,,0.23,Acu-Link.com,2013-08-10 13:08:00,
2013-08-10 09:23:00,85.1,77.8,29.97,NNE,22,7.4,-999.0,79,-99.99,,,0.23,Acu-Link.com,2013-08-10 13:23:00,
2013-08-10 09:38:00,85.8,77.8,29.98,East,90,11.9,-999.0,77,-99.99,,,0.23,Acu-Link.com,2013-08-10 13:38:00,
2013-08-10 09:53:00,87.1,77.8,29.98,ESE,112,8.9,-999.0,74,-99.99,,,0.23,Acu-Link.com,2013-08-10 13:53:00,
2013-08-10 10:08:00,86.4,76.7,29.98,ENE,67,6.7,-999.0,73,-99.99,,,0.23,Acu-Link.com,2013-08-10 14:08:00,
2013-08-10 10:24:00,85.6,76.8,29.98,ESE,112,8.9,-999.0,75,-99.99,,,0.23,Acu-Link.com,2013-08-10 14:24:00,
2013-08-10 10:39:00,87.6,78.3,29.98,South,180,6.7,-999.0,74,-99.99,,,0.23,Acu-Link.com,2013-08-10 14:39:00,
2013-08-10 10:54:00,88.3,77.7,29.97,ESE,112,11.0,-999.0,71,-99.99,,,0.23,Acu-Link.com,2013-08-10 14:54:00,
2013-08-10 11:09:00,88.7,78.1,29.97,ESE,112,9.8,-999.0,71,-99.99,,,0.23,Acu-Link.com,2013-08-10 15:09:00,
2013-08-10 11:24:00,89.4,78.7,29.97,ESE,112,9.4,-999.0,71,-99.99,,,0.23,Acu-Link.com,2013-08-10 15:24:00,
2013-08-10 11:40:00,89.2,78.1,29.97,East,90,7.8,-999.0,70,-99.99,,,0.23,Acu-Link.com,2013-08-10 15:40:00,
2013-08-10 11:55:00,89.2,78.1,29.97,ESE,112,9.8,-999.0,70,-99.99,,,0.23,Acu-Link.com,2013-08-10 15:55:00,
2013-08-10 12:10:00,89.2,77.3,29.96,ESE,112,8.9,-999.0,68,-99.99,,,0.23,Acu-Link.com,2013-08-10 16:10:00,
2013-08-10 12:25:00,89.2,78.1,29.95,ESE,112,11.4,-999.0,70,-99.99,,,0.23,Acu-Link.com,2013-08-10 16:25:00,
2013-08-10 12:41:00,90.0,77.9,29.95,ENE,67,11.9,-999.0,68,-99.99,,,0.23,Acu-Link.com,2013-08-10 16:41:00,
2013-08-10 12:56:00,89.8,78.2,29.94,ESE,112,8.9,-999.0,69,-99.99,,,0.23,Acu-Link.com,2013-08-10 16:56:00,
2013-08-10 13:11:00,90.3,77.8,29.94,ESE,112,11.4,-999.0,67,-99.99,,,0.23,Acu-Link.com,2013-08-10 17:11:00,
2013-08-10 13:26:00,90.1,78.6,29.94,North,0,11.0,-999.0,69,-99.99,,,0.23,Acu-Link.com,2013-08-10 17:26:00,
2013-08-10 13:41:00,88.9,77.4,29.93,SSE,157,7.4,-999.0,69,-99.99,,,0.23,Acu-Link.com,2013-08-10 17:41:00,
2013-08-10 13:56:00,85.5,77.0,29.94,SSE,157,5.8,-999.0,76,-99.99,,,0.23,Acu-Link.com,2013-08-10 17:56:00,
2013-08-10 14:12:00,89.2,76.8,29.93,ESE,112,8.3,-999.0,67,-99.99,,,0.23,Acu-Link.com,2013-08-10 18:12:00,
2013-08-10 14:27:00,89.8,77.8,29.92,ESE,112,5.1,-999.0,68,-99.99,,,0.23,Acu-Link.com,2013-08-10 18:27:00,
2013-08-10 14:42:00,86.7,77.8,29.93,SE,135,11.4,-999.0,75,-99.99,,,0.24,Acu-Link.com,2013-08-10 18:42:00,
2013-08-10 14:57:00,84.0,77.9,29.92,ESE,112,3.8,-999.0,82,-99.99,,,0.30,Acu-Link.com,2013-08-10 18:57:00,
2013-08-10 15:12:00,86.4,79.1,29.92,ESE,112,5.1,-999.0,79,-99.99,,,0.30,Acu-Link.com,2013-08-10 19:12:00,
2013-08-10 15:28:00,83.1,78.1,29.91,ESE,112,4.7,-999.0,85,-99.99,,,0.30,Acu-Link.com,2013-08-10 19:28:00,
2013-08-10 15:43:00,83.3,76.5,29.91,ESE,112,3.1,-999.0,80,-99.99,,,0.54,Acu-Link.com,2013-08-10 19:43:00,
2013-08-10 15:58:00,86.4,78.3,29.91,NE,45,4.3,-999.0,77,-99.99,,,0.54,Acu-Link.com,2013-08-10 19:58:00,
2013-08-10 16:13:00,86.9,80.0,29.90,ENE,67,6.3,-999.0,80,-99.99,,,0.54,Acu-Link.com,2013-08-10 20:13:00,
2013-08-10 16:28:00,86.7,79.0,29.89,East,90,8.3,-999.0,78,-99.99,,,0.54,Acu-Link.com,2013-08-10 20:28:00,
2013-08-10 16:44:00,86.9,79.2,29.89,ESE,112,9.4,-999.0,78,-99.99,,,0.54,Acu-Link.com,2013-08-10 20:44:00,
2013-08-10 16:59:00,86.4,78.7,29.89,ENE,67,9.4,-999.0,78,-99.99,,,0.54,Acu-Link.com,2013-08-10 20:59:00,
2013-08-10 17:14:00,85.8,78.1,29.89,ESE,112,10.3,-999.0,78,-99.99,,,0.54,Acu-Link.com,2013-08-10 21:14:00,
2013-08-10 17:29:00,85.6,78.0,29.89,ESE,112,7.8,-999.0,78,-99.99,,,0.54,Acu-Link.com,2013-08-10 21:29:00,
2013-08-10 17:44:00,86.2,78.1,29.89,East,90,9.8,-999.0,77,-99.99,,,0.54,Acu-Link.com,2013-08-10 21:44:00,
2013-08-10 18:00:00,85.3,78.0,29.89,ESE,112,6.3,-999.0,79,-99.99,,,0.54,Acu-Link.com,2013-08-10 22:00:00,
2013-08-10 18:15:00,84.9,78.0,29.90,ESE,112,6.7,-999.0,80,-99.99,,,0.54,Acu-Link.com,2013-08-10 22:15:00,
2013-08-10 18:30:00,84.7,74.3,29.90,East,90,6.3,-999.0,71,-99.99,,,0.54,Acu-Link.com,2013-08-10 22:30:00,
2013-08-10 18:45:00,84.7,73.8,29.90,ESE,112,2.2,-999.0,70,-99.99,,,0.54,Acu-Link.com,2013-08-10 22:45:00,
2013-08-10 19:01:00,84.2,74.2,29.91,SW,225,2.2,-999.0,72,-99.99,,,0.54,Acu-Link.com,2013-08-10 23:01:00,
2013-08-10 19:16:00,84.0,75.2,29.92,SSE,157,2.7,-999.0,75,-99.99,,,0.54,Acu-Link.com,2013-08-10 23:16:00,
2013-08-10 19:31:00,83.8,77.4,29.93,East,90,5.8,-999.0,81,-99.99,,,0.54,Acu-Link.com,2013-08-10 23:31:00,
2013-08-10 19:46:00,83.7,77.6,29.93,ESE,112,4.3,-999.0,82,-99.99,,,0.54,Acu-Link.com,2013-08-10 23:46:00,
2013-08-10 20:01:00,83.7,77.9,29.94,SE,135,4.7,-999.0,83,-99.99,,,0.54,Acu-Link.com,2013-08-11 00:01:00,
2013-08-10 20:17:00,83.7,77.9,29.95,ESE,112,4.7,-999.0,83,-99.99,,,0.54,Acu-Link.com,2013-08-11 00:17:00,
2013-08-10 20:32:00,83.5,78.1,29.95,ESE,112,4.7,-999.0,84,-99.99,,,0.54,Acu-Link.com,2013-08-11 00:32:00,
2013-08-10 20:47:00,83.1,78.1,29.96,SE,135,6.3,-999.0,85,-99.99,,,0.54,Acu-Link.com,2013-08-11 00:47:00,
2013-08-10 21:02:00,82.8,76.7,29.96,ESE,112,6.3,-999.0,82,-99.99,,,0.54,Acu-Link.com,2013-08-11 01:02:00,
2013-08-10 21:17:00,82.8,76.7,29.96,ESE,112,4.3,-999.0,82,-99.99,,,0.54,Acu-Link.com,2013-08-11 01:17:00,
2013-08-10 21:33:00,82.9,77.2,29.96,East,90,7.8,-999.0,83,-99.99,,,0.54,Acu-Link.com,2013-08-11 01:33:00,
2013-08-10 21:48:00,82.9,77.2,29.97,ESE,112,3.8,-999.0,83,-99.99,,,0.54,Acu-Link.com,2013-08-11 01:48:00,
2013-08-10 22:03:00,82.9,76.9,29.97,ESE,112,4.3,-999.0,82,-99.99,,,0.54,Acu-Link.com,2013-08-11 02:03:00,
2013-08-10 22:18:00,82.0,76.0,29.97,SE,135,8.3,-999.0,82,-99.99,,,0.54,Acu-Link.com,2013-08-11 02:18:00,
2013-08-10 22:33:00,82.0,75.6,29.97,ESE,112,2.7,-999.0,81,-99.99,,,0.54,Acu-Link.com,2013-08-11 02:33:00,
2013-08-10 22:49:00,82.2,76.5,29.97,ESE,112,2.7,-999.0,83,-99.99,,,0.54,Acu-Link.com,2013-08-11 02:49:00,
2013-08-10 23:04:00,82.0,76.7,29.98,ESE,112,3.8,-999.0,84,-99.99,,,0.54,Acu-Link.com,2013-08-11 03:04:00,
2013-08-10 23:19:00,81.9,76.5,29.97,ESE,112,4.3,-999.0,84,-99.99,,,0.54,Acu-Link.com,2013-08-11 03:19:00,
2013-08-10 23:34:00,81.7,76.0,29.98,NE,45,4.7,-999.0,83,-99.99,,,0.54,Acu-Link.com,2013-08-11 03:34:00,
2013-08-10 23:50:00,81.7,76.0,29.97,ESE,112,4.3,-999.0,83,-99.99,,,0.54,Acu-Link.com,2013-08-11 03:50:00,